TAF Text Data
IDs:
Format:
Raw Decoded Include METAR

Data at: 1428 UTC 10 Jul 2020

KHUL 101120Z 1012/1112 VRB02KT 6SM BR FEW004
  TEMPO 1012/1013 2SM BR BKN003
  FM101300 VRB02KT P6SM SCT015
  FM101430 15005KT P6SM SCT030
  FM101600 16007KT P6SM SCT040
  FM110200 18006KT P6SM SCT025
  FM110300 18005KT P6SM SCT007 BKN015
  FM110700 16006KT 5SM BR VCSH OVC005